sensor_id;sensor_type;location;lat;lon;timestamp;P1;durP1;ratioP1;P2;durP2;ratioP2
22646;SDS011;11490;42.726;23.268;2023-05-07T00:01:12;151.75;;;45.63;;
22646;SDS011;11490;42.726;23.268;2023-05-07T00:03:37;133.02;;;36.90;;
22646;SDS011;11490;42.726;23.268;2023-05-07T00:06:03;55.83;;;20.33;;
22646;SDS011;11490;42.726;23.268;2023-05-07T00:08:28;53.92;;;18.35;;
22646;SDS011;11490;42.726;23.268;2023-05-07T00:10:54;30.52;;;11.25;;
22646;SDS011;11490;42.726;23.268;2023-05-07T00:13:19;19.13;;;9.45;;
22646;SDS011;11490;42.726;23.268;2023-05-07T00:15:44;18.75;;;9.98;;
22646;SDS011;11490;42.726;23.268;2023-05-07T00:18:10;15.48;;;8.35;;
22646;SDS011;11490;42.726;23.268;2023-05-07T00:20:35;23.02;;;9.73;;
22646;SDS011;11490;42.726;23.268;2023-05-07T00:23:01;16.50;;;9.07;;
22646;SDS011;11490;42.726;23.268;2023-05-07T00:25:26;14.75;;;8.65;;
22646;SDS011;11490;42.726;23.268;2023-05-07T00:27:51;17.02;;;8.63;;
22646;SDS011;11490;42.726;23.268;2023-05-07T00:30:17;16.23;;;8.50;;
22646;SDS011;11490;42.726;23.268;2023-05-07T00:32:42;16.73;;;9.73;;
22646;SDS011;11490;42.726;23.268;2023-05-07T00:35:10;35.60;;;14.57;;
22646;SDS011;11490;42.726;23.268;2023-05-07T00:37:36;26.63;;;13.00;;
22646;SDS011;11490;42.726;23.268;2023-05-07T00:40:01;40.25;;;12.32;;
22646;SDS011;11490;42.726;23.268;2023-05-07T00:42:29;29.00;;;12.30;;
22646;SDS011;11490;42.726;23.268;2023-05-07T00:44:57;74.97;;;25.77;;
22646;SDS011;11490;42.726;23.268;2023-05-07T00:47:22;80.03;;;23.52;;
22646;SDS011;11490;42.726;23.268;2023-05-07T00:49:48;59.75;;;17.90;;
22646;SDS011;11490;42.726;23.268;2023-05-07T00:52:15;19.95;;;10.75;;
22646;SDS011;11490;42.726;23.268;2023-05-07T00:54:42;30.50;;;12.27;;
22646;SDS011;11490;42.726;23.268;2023-05-07T00:57:08;38.00;;;13.05;;
22646;SDS011;11490;42.726;23.268;2023-05-07T00:59:36;20.13;;;9.80;;
22646;SDS011;11490;42.726;23.268;2023-05-07T01:02:01;18.65;;;10.52;;
22646;SDS011;11490;42.726;23.268;2023-05-07T01:04:27;13.27;;;8.70;;
22646;SDS011;11490;42.726;23.268;2023-05-07T01:06:52;9.45;;;6.80;;
22646;SDS011;11490;42.726;23.268;2023-05-07T01:09:21;16.05;;;8.18;;
22646;SDS011;11490;42.726;23.268;2023-05-07T01:11:48;12.65;;;8.15;;
22646;SDS011;11490;42.726;23.268;2023-05-07T01:14:15;14.82;;;8.48;;
22646;SDS011;11490;42.726;23.268;2023-05-07T01:16:41;14.00;;;8.98;;
22646;SDS011;11490;42.726;23.268;2023-05-07T01:19:07;10.20;;;7.40;;
22646;SDS011;11490;42.726;23.268;2023-05-07T01:21:35;12.93;;;8.13;;
22646;SDS011;11490;42.726;23.268;2023-05-07T01:24:03;11.25;;;7.63;;
22646;SDS011;11490;42.726;23.268;2023-05-07T01:26:30;9.30;;;6.50;;
22646;SDS011;11490;42.726;23.268;2023-05-07T01:28:55;12.65;;;7.22;;
22646;SDS011;11490;42.726;23.268;2023-05-07T01:31:21;10.75;;;7.07;;
22646;SDS011;11490;42.726;23.268;2023-05-07T01:33:48;8.85;;;5.85;;
22646;SDS011;11490;42.726;23.268;2023-05-07T01:36:17;10.05;;;5.47;;
22646;SDS011;11490;42.726;23.268;2023-05-07T01:38:43;6.97;;;5.65;;
22646;SDS011;11490;42.726;23.268;2023-05-07T01:41:09;12.13;;;5.88;;
22646;SDS011;11490;42.726;23.268;2023-05-07T01:43:35;14.38;;;6.90;;
22646;SDS011;11490;42.726;23.268;2023-05-07T01:46:01;9.18;;;6.63;;
22646;SDS011;11490;42.726;23.268;2023-05-07T01:48:27;13.05;;;7.43;;
22646;SDS011;11490;42.726;23.268;2023-05-07T01:50:53;14.63;;;7.35;;
22646;SDS011;11490;42.726;23.268;2023-05-07T01:53:20;12.55;;;6.85;;
22646;SDS011;11490;42.726;23.268;2023-05-07T01:55:45;19.90;;;6.75;;
22646;SDS011;11490;42.726;23.268;2023-05-07T01:58:10;10.75;;;6.72;;
22646;SDS011;11490;42.726;23.268;2023-05-07T02:00:36;11.52;;;7.18;;
22646;SDS011;11490;42.726;23.268;2023-05-07T02:03:01;8.48;;;6.13;;
22646;SDS011;11490;42.726;23.268;2023-05-07T02:05:27;14.48;;;7.20;;
22646;SDS011;11490;42.726;23.268;2023-05-07T02:07:52;15.25;;;6.30;;
22646;SDS011;11490;42.726;23.268;2023-05-07T02:10:17;13.55;;;7.38;;
22646;SDS011;11490;42.726;23.268;2023-05-07T02:12:43;12.13;;;6.53;;
22646;SDS011;11490;42.726;23.268;2023-05-07T02:15:08;11.40;;;7.13;;
22646;SDS011;11490;42.726;23.268;2023-05-07T02:17:34;13.75;;;7.50;;
22646;SDS011;11490;42.726;23.268;2023-05-07T02:20:00;18.83;;;9.15;;
22646;SDS011;11490;42.726;23.268;2023-05-07T02:22:25;21.42;;;9.70;;
22646;SDS011;11490;42.726;23.268;2023-05-07T02:24:51;15.27;;;8.55;;
22646;SDS011;11490;42.726;23.268;2023-05-07T02:27:16;12.40;;;7.88;;
22646;SDS011;11490;42.726;23.268;2023-05-07T02:29:41;13.90;;;7.82;;
22646;SDS011;11490;42.726;23.268;2023-05-07T02:32:07;9.43;;;7.25;;
22646;SDS011;11490;42.726;23.268;2023-05-07T02:34:32;9.88;;;7.40;;
22646;SDS011;11490;42.726;23.268;2023-05-07T02:36:57;14.23;;;7.40;;
22646;SDS011;11490;42.726;23.268;2023-05-07T02:39:23;13.75;;;6.90;;
22646;SDS011;11490;42.726;23.268;2023-05-07T02:41:48;7.53;;;6.10;;
22646;SDS011;11490;42.726;23.268;2023-05-07T02:44:14;8.27;;;6.07;;
22646;SDS011;11490;42.726;23.268;2023-05-07T02:46:39;8.57;;;6.40;;
22646;SDS011;11490;42.726;23.268;2023-05-07T02:49:05;14.00;;;7.07;;
22646;SDS011;11490;42.726;23.268;2023-05-07T02:51:30;8.68;;;6.45;;
22646;SDS011;11490;42.726;23.268;2023-05-07T02:53:56;10.95;;;6.57;;
22646;SDS011;11490;42.726;23.268;2023-05-07T02:56:21;8.05;;;5.97;;
22646;SDS011;11490;42.726;23.268;2023-05-07T02:58:47;8.55;;;6.13;;
22646;SDS011;11490;42.726;23.268;2023-05-07T03:01:12;7.97;;;5.03;;
22646;SDS011;11490;42.726;23.268;2023-05-07T03:03:39;6.93;;;5.00;;
22646;SDS011;11490;42.726;23.268;2023-05-07T03:06:05;11.05;;;5.75;;
22646;SDS011;11490;42.726;23.268;2023-05-07T03:08:31;9.55;;;5.78;;
22646;SDS011;11490;42.726;23.268;2023-05-07T03:10:57;13.48;;;6.90;;
22646;SDS011;11490;42.726;23.268;2023-05-07T03:13:22;10.77;;;5.65;;
22646;SDS011;11490;42.726;23.268;2023-05-07T03:15:47;6.80;;;5.45;;
22646;SDS011;11490;42.726;23.268;2023-05-07T03:18:13;6.13;;;4.85;;
22646;SDS011;11490;42.726;23.268;2023-05-07T03:20:39;5.85;;;4.65;;
22646;SDS011;11490;42.726;23.268;2023-05-07T03:23:05;8.38;;;5.72;;
22646;SDS011;11490;42.726;23.268;2023-05-07T03:25:30;9.57;;;5.78;;
22646;SDS011;11490;42.726;23.268;2023-05-07T03:27:56;8.27;;;5.35;;
22646;SDS011;11490;42.726;23.268;2023-05-07T03:30:21;8.00;;;5.50;;
22646;SDS011;11490;42.726;23.268;2023-05-07T03:32:47;11.25;;;5.57;;
22646;SDS011;11490;42.726;23.268;2023-05-07T03:35:12;5.45;;;4.80;;
22646;SDS011;11490;42.726;23.268;2023-05-07T03:37:38;6.85;;;4.75;;
22646;SDS011;11490;42.726;23.268;2023-05-07T03:40:04;6.50;;;5.25;;
22646;SDS011;11490;42.726;23.268;2023-05-07T03:42:30;7.50;;;5.50;;
22646;SDS011;11490;42.726;23.268;2023-05-07T03:44:56;8.48;;;5.63;;
22646;SDS011;11490;42.726;23.268;2023-05-07T03:47:21;8.35;;;5.90;;
22646;SDS011;11490;42.726;23.268;2023-05-07T03:49:46;9.77;;;6.68;;
22646;SDS011;11490;42.726;23.268;2023-05-07T03:52:13;9.32;;;6.05;;
22646;SDS011;11490;42.726;23.268;2023-05-07T03:54:39;9.55;;;5.50;;
22646;SDS011;11490;42.726;23.268;2023-05-07T03:57:04;7.63;;;5.75;;
22646;SDS011;11490;42.726;23.268;2023-05-07T03:59:30;7.03;;;5.55;;
22646;SDS011;11490;42.726;23.268;2023-05-07T04:01:55;7.55;;;5.45;;
22646;SDS011;11490;42.726;23.268;2023-05-07T04:04:21;9.10;;;6.00;;
22646;SDS011;11490;42.726;23.268;2023-05-07T04:06:46;7.25;;;5.22;;
22646;SDS011;11490;42.726;23.268;2023-05-07T04:09:11;9.43;;;5.68;;
22646;SDS011;11490;42.726;23.268;2023-05-07T04:11:37;6.57;;;5.10;;
22646;SDS011;11490;42.726;23.268;2023-05-07T04:14:05;7.22;;;5.75;;
22646;SDS011;11490;42.726;23.268;2023-05-07T04:16:30;6.95;;;5.43;;
22646;SDS011;11490;42.726;23.268;2023-05-07T04:18:55;9.18;;;5.68;;
22646;SDS011;11490;42.726;23.268;2023-05-07T04:21:21;7.03;;;4.82;;
22646;SDS011;11490;42.726;23.268;2023-05-07T04:23:46;12.57;;;5.70;;
22646;SDS011;11490;42.726;23.268;2023-05-07T04:26:13;6.50;;;5.22;;
22646;SDS011;11490;42.726;23.268;2023-05-07T04:28:39;6.72;;;5.13;;
22646;SDS011;11490;42.726;23.268;2023-05-07T04:31:05;9.23;;;5.43;;
22646;SDS011;11490;42.726;23.268;2023-05-07T04:33:31;6.88;;;5.35;;
22646;SDS011;11490;42.726;23.268;2023-05-07T04:35:57;8.80;;;5.68;;
22646;SDS011;11490;42.726;23.268;2023-05-07T04:38:22;8.35;;;5.75;;
22646;SDS011;11490;42.726;23.268;2023-05-07T04:40:48;8.23;;;5.97;;
22646;SDS011;11490;42.726;23.268;2023-05-07T04:43:14;12.25;;;5.93;;
22646;SDS011;11490;42.726;23.268;2023-05-07T04:45:39;10.48;;;5.43;;
22646;SDS011;11490;42.726;23.268;2023-05-07T04:48:06;9.07;;;5.85;;
22646;SDS011;11490;42.726;23.268;2023-05-07T04:50:32;9.18;;;5.38;;
22646;SDS011;11490;42.726;23.268;2023-05-07T04:52:57;9.40;;;5.13;;
22646;SDS011;11490;42.726;23.268;2023-05-07T04:55:23;7.55;;;5.38;;
22646;SDS011;11490;42.726;23.268;2023-05-07T04:57:48;5.97;;;4.57;;
22646;SDS011;11490;42.726;23.268;2023-05-07T05:00:15;9.15;;;6.45;;
22646;SDS011;11490;42.726;23.268;2023-05-07T05:02:41;7.32;;;5.13;;
22646;SDS011;11490;42.726;23.268;2023-05-07T05:05:07;6.35;;;5.28;;
22646;SDS011;11490;42.726;23.268;2023-05-07T05:07:32;7.25;;;5.57;;
22646;SDS011;11490;42.726;23.268;2023-05-07T05:09:58;5.40;;;4.47;;
22646;SDS011;11490;42.726;23.268;2023-05-07T05:12:23;8.70;;;5.68;;
22646;SDS011;11490;42.726;23.268;2023-05-07T05:14:49;8.93;;;5.38;;
22646;SDS011;11490;42.726;23.268;2023-05-07T05:17:14;10.43;;;6.32;;
22646;SDS011;11490;42.726;23.268;2023-05-07T05:19:39;7.35;;;5.53;;
22646;SDS011;11490;42.726;23.268;2023-05-07T05:22:05;8.95;;;5.57;;
22646;SDS011;11490;42.726;23.268;2023-05-07T05:24:30;6.85;;;5.13;;
22646;SDS011;11490;42.726;23.268;2023-05-07T05:26:56;7.80;;;5.18;;
22646;SDS011;11490;42.726;23.268;2023-05-07T05:29:21;11.77;;;6.07;;
22646;SDS011;11490;42.726;23.268;2023-05-07T05:31:47;12.45;;;6.72;;
22646;SDS011;11490;42.726;23.268;2023-05-07T05:34:13;8.30;;;5.50;;
22646;SDS011;11490;42.726;23.268;2023-05-07T05:36:38;7.00;;;4.80;;
22646;SDS011;11490;42.726;23.268;2023-05-07T05:39:03;9.35;;;6.18;;
22646;SDS011;11490;42.726;23.268;2023-05-07T05:41:29;10.48;;;5.78;;
22646;SDS011;11490;42.726;23.268;2023-05-07T05:43:55;10.05;;;7.25;;
22646;SDS011;11490;42.726;23.268;2023-05-07T05:46:21;10.63;;;5.97;;
22646;SDS011;11490;42.726;23.268;2023-05-07T05:48:46;12.38;;;5.82;;
22646;SDS011;11490;42.726;23.268;2023-05-07T05:51:11;9.40;;;6.57;;
22646;SDS011;11490;42.726;23.268;2023-05-07T05:53:37;11.50;;;6.82;;
22646;SDS011;11490;42.726;23.268;2023-05-07T05:56:02;8.30;;;5.70;;
22646;SDS011;11490;42.726;23.268;2023-05-07T05:58:28;8.80;;;6.07;;
22646;SDS011;11490;42.726;23.268;2023-05-07T06:00:53;9.65;;;6.18;;
22646;SDS011;11490;42.726;23.268;2023-05-07T06:03:19;8.65;;;6.22;;
22646;SDS011;11490;42.726;23.268;2023-05-07T06:05:44;12.38;;;6.45;;
22646;SDS011;11490;42.726;23.268;2023-05-07T06:08:09;9.80;;;6.15;;
22646;SDS011;11490;42.726;23.268;2023-05-07T06:10:38;8.57;;;5.80;;
22646;SDS011;11490;42.726;23.268;2023-05-07T06:13:03;10.68;;;7.00;;
22646;SDS011;11490;42.726;23.268;2023-05-07T06:15:29;13.48;;;6.47;;
22646;SDS011;11490;42.726;23.268;2023-05-07T06:17:54;9.63;;;6.00;;
22646;SDS011;11490;42.726;23.268;2023-05-07T06:20:22;10.43;;;7.15;;
22646;SDS011;11490;42.726;23.268;2023-05-07T06:22:48;9.50;;;7.05;;
22646;SDS011;11490;42.726;23.268;2023-05-07T06:25:13;8.98;;;6.00;;
22646;SDS011;11490;42.726;23.268;2023-05-07T06:27:39;9.70;;;6.43;;
22646;SDS011;11490;42.726;23.268;2023-05-07T06:30:05;10.70;;;6.00;;
22646;SDS011;11490;42.726;23.268;2023-05-07T06:32:31;12.40;;;7.25;;
22646;SDS011;11490;42.726;23.268;2023-05-07T06:34:56;11.45;;;7.10;;
22646;SDS011;11490;42.726;23.268;2023-05-07T06:37:22;10.75;;;7.13;;
22646;SDS011;11490;42.726;23.268;2023-05-07T06:39:47;11.23;;;7.05;;
22646;SDS011;11490;42.726;23.268;2023-05-07T06:42:13;10.20;;;6.78;;
22646;SDS011;11490;42.726;23.268;2023-05-07T06:44:38;9.65;;;6.22;;
22646;SDS011;11490;42.726;23.268;2023-05-07T06:47:03;10.43;;;6.00;;
22646;SDS011;11490;42.726;23.268;2023-05-07T06:49:30;10.00;;;6.47;;
22646;SDS011;11490;42.726;23.268;2023-05-07T06:51:56;10.57;;;7.15;;
22646;SDS011;11490;42.726;23.268;2023-05-07T06:54:22;10.02;;;6.50;;
22646;SDS011;11490;42.726;23.268;2023-05-07T06:56:47;9.43;;;6.55;;
22646;SDS011;11490;42.726;23.268;2023-05-07T06:59:13;9.82;;;6.07;;
22646;SDS011;11490;42.726;23.268;2023-05-07T07:01:38;10.38;;;6.55;;
22646;SDS011;11490;42.726;23.268;2023-05-07T07:04:04;8.98;;;5.88;;
22646;SDS011;11490;42.726;23.268;2023-05-07T07:06:29;9.70;;;6.03;;
22646;SDS011;11490;42.726;23.268;2023-05-07T07:08:56;8.50;;;5.78;;
22646;SDS011;11490;42.726;23.268;2023-05-07T07:11:22;10.00;;;5.80;;
22646;SDS011;11490;42.726;23.268;2023-05-07T07:13:48;10.43;;;6.93;;
22646;SDS011;11490;42.726;23.268;2023-05-07T07:16:13;8.82;;;6.60;;
22646;SDS011;11490;42.726;23.268;2023-05-07T07:18:38;7.13;;;5.32;;
22646;SDS011;11490;42.726;23.268;2023-05-07T07:21:04;11.30;;;6.43;;
22646;SDS011;11490;42.726;23.268;2023-05-07T07:23:30;7.45;;;5.22;;
22646;SDS011;11490;42.726;23.268;2023-05-07T07:25:55;9.43;;;6.97;;
22646;SDS011;11490;42.726;23.268;2023-05-07T07:28:21;10.10;;;6.07;;
22646;SDS011;11490;42.726;23.268;2023-05-07T07:30:46;8.93;;;5.95;;
22646;SDS011;11490;42.726;23.268;2023-05-07T07:33:12;10.82;;;6.10;;
22646;SDS011;11490;42.726;23.268;2023-05-07T07:35:37;7.72;;;5.80;;
22646;SDS011;11490;42.726;23.268;2023-05-07T07:38:03;9.77;;;6.10;;
22646;SDS011;11490;42.726;23.268;2023-05-07T07:40:28;8.45;;;5.07;;
22646;SDS011;11490;42.726;23.268;2023-05-07T07:42:54;10.45;;;5.80;;
22646;SDS011;11490;42.726;23.268;2023-05-07T07:45:19;8.77;;;6.18;;
22646;SDS011;11490;42.726;23.268;2023-05-07T07:47:45;7.70;;;5.55;;
22646;SDS011;11490;42.726;23.268;2023-05-07T07:50:29;6.82;;;5.05;;
22646;SDS011;11490;42.726;23.268;2023-05-07T07:52:54;8.05;;;5.00;;
22646;SDS011;11490;42.726;23.268;2023-05-07T07:55:20;6.97;;;4.47;;
22646;SDS011;11490;42.726;23.268;2023-05-07T07:57:47;6.55;;;4.75;;
22646;SDS011;11490;42.726;23.268;2023-05-07T08:00:13;8.45;;;4.55;;
22646;SDS011;11490;42.726;23.268;2023-05-07T08:02:39;7.55;;;4.75;;
22646;SDS011;11490;42.726;23.268;2023-05-07T08:05:04;6.70;;;4.78;;
22646;SDS011;11490;42.726;23.268;2023-05-07T08:07:30;7.90;;;4.75;;
22646;SDS011;11490;42.726;23.268;2023-05-07T08:09:56;12.50;;;5.07;;
22646;SDS011;11490;42.726;23.268;2023-05-07T08:12:21;8.00;;;5.10;;
22646;SDS011;11490;42.726;23.268;2023-05-07T08:14:46;8.25;;;5.75;;
22646;SDS011;11490;42.726;23.268;2023-05-07T08:17:12;6.10;;;4.65;;
22646;SDS011;11490;42.726;23.268;2023-05-07T08:19:40;7.13;;;4.88;;
22646;SDS011;11490;42.726;23.268;2023-05-07T08:22:06;8.02;;;4.93;;
22646;SDS011;11490;42.726;23.268;2023-05-07T08:24:31;11.77;;;4.72;;
22646;SDS011;11490;42.726;23.268;2023-05-07T08:26:56;5.72;;;4.22;;
22646;SDS011;11490;42.726;23.268;2023-05-07T08:29:23;12.27;;;4.97;;
22646;SDS011;11490;42.726;23.268;2023-05-07T08:31:49;8.23;;;4.53;;
22646;SDS011;11490;42.726;23.268;2023-05-07T08:34:14;8.27;;;5.22;;
22646;SDS011;11490;42.726;23.268;2023-05-07T08:36:40;6.65;;;4.55;;
22646;SDS011;11490;42.726;23.268;2023-05-07T08:39:06;7.57;;;4.30;;
22646;SDS011;11490;42.726;23.268;2023-05-07T08:41:32;6.93;;;3.92;;
22646;SDS011;11490;42.726;23.268;2023-05-07T08:43:58;4.88;;;3.83;;
22646;SDS011;11490;42.726;23.268;2023-05-07T08:46:25;6.00;;;3.92;;
22646;SDS011;11490;42.726;23.268;2023-05-07T08:48:51;6.22;;;3.50;;
22646;SDS011;11490;42.726;23.268;2023-05-07T08:51:18;6.28;;;3.67;;
22646;SDS011;11490;42.726;23.268;2023-05-07T08:53:45;5.45;;;3.67;;
22646;SDS011;11490;42.726;23.268;2023-05-07T08:56:13;4.25;;;3.15;;
22646;SDS011;11490;42.726;23.268;2023-05-07T08:58:40;4.70;;;3.30;;
22646;SDS011;11490;42.726;23.268;2023-05-07T09:01:09;6.35;;;3.85;;
22646;SDS011;11490;42.726;23.268;2023-05-07T09:03:38;4.15;;;2.75;;
22646;SDS011;11490;42.726;23.268;2023-05-07T09:06:05;4.72;;;3.50;;
22646;SDS011;11490;42.726;23.268;2023-05-07T09:08:32;4.80;;;3.47;;
22646;SDS011;11490;42.726;23.268;2023-05-07T09:10:58;4.47;;;3.20;;
22646;SDS011;11490;42.726;23.268;2023-05-07T09:13:23;11.32;;;3.47;;
22646;SDS011;11490;42.726;23.268;2023-05-07T09:15:48;4.80;;;3.42;;
22646;SDS011;11490;42.726;23.268;2023-05-07T09:18:14;4.82;;;3.17;;
22646;SDS011;11490;42.726;23.268;2023-05-07T09:20:41;6.97;;;4.07;;
22646;SDS011;11490;42.726;23.268;2023-05-07T09:23:07;6.20;;;3.78;;
22646;SDS011;11490;42.726;23.268;2023-05-07T09:25:33;4.45;;;2.92;;
22646;SDS011;11490;42.726;23.268;2023-05-07T09:28:00;5.22;;;3.55;;
22646;SDS011;11490;42.726;23.268;2023-05-07T09:30:31;5.32;;;3.20;;
22646;SDS011;11490;42.726;23.268;2023-05-07T09:32:58;8.07;;;3.30;;
22646;SDS011;11490;42.726;23.268;2023-05-07T09:35:24;3.72;;;2.97;;
22646;SDS011;11490;42.726;23.268;2023-05-07T09:37:52;4.40;;;3.10;;
22646;SDS011;11490;42.726;23.268;2023-05-07T09:40:22;3.90;;;2.45;;
22646;SDS011;11490;42.726;23.268;2023-05-07T09:42:49;3.10;;;2.15;;
22646;SDS011;11490;42.726;23.268;2023-05-07T09:45:15;4.75;;;2.70;;
22646;SDS011;11490;42.726;23.268;2023-05-07T09:47:42;3.83;;;2.60;;
22646;SDS011;11490;42.726;23.268;2023-05-07T09:50:11;2.72;;;1.85;;
22646;SDS011;11490;42.726;23.268;2023-05-07T09:52:38;3.90;;;2.35;;
22646;SDS011;11490;42.726;23.268;2023-05-07T09:55:05;5.97;;;3.08;;
22646;SDS011;11490;42.726;23.268;2023-05-07T09:57:32;4.25;;;2.70;;
22646;SDS011;11490;42.726;23.268;2023-05-07T09:59:58;3.08;;;2.20;;
22646;SDS011;11490;42.726;23.268;2023-05-07T10:02:27;3.85;;;2.58;;
22646;SDS011;11490;42.726;23.268;2023-05-07T10:04:55;3.58;;;2.35;;
22646;SDS011;11490;42.726;23.268;2023-05-07T10:07:22;5.97;;;2.42;;
22646;SDS011;11490;42.726;23.268;2023-05-07T10:09:48;4.32;;;2.67;;
22646;SDS011;11490;42.726;23.268;2023-05-07T10:12:15;4.30;;;2.60;;
22646;SDS011;11490;42.726;23.268;2023-05-07T10:14:43;3.70;;;2.28;;
22646;SDS011;11490;42.726;23.268;2023-05-07T10:17:11;2.97;;;2.20;;
22646;SDS011;11490;42.726;23.268;2023-05-07T10:19:37;4.18;;;2.83;;
22646;SDS011;11490;42.726;23.268;2023-05-07T10:22:04;5.70;;;2.45;;
22646;SDS011;11490;42.726;23.268;2023-05-07T10:24:32;3.85;;;2.63;;
22646;SDS011;11490;42.726;23.268;2023-05-07T10:27:03;5.57;;;2.40;;
22646;SDS011;11490;42.726;23.268;2023-05-07T10:29:41;5.60;;;2.92;;
22646;SDS011;11490;42.726;23.268;2023-05-07T10:34:54;3.38;;;2.20;;
22646;SDS011;11490;42.726;23.268;2023-05-07T10:37:24;4.28;;;2.47;;
22646;SDS011;11490;42.726;23.268;2023-05-07T10:39:50;3.75;;;2.28;;
22646;SDS011;11490;42.726;23.268;2023-05-07T10:42:16;3.20;;;2.03;;
22646;SDS011;11490;42.726;23.268;2023-05-07T10:44:42;3.00;;;1.85;;
22646;SDS011;11490;42.726;23.268;2023-05-07T10:47:08;3.20;;;1.92;;
22646;SDS011;11490;42.726;23.268;2023-05-07T10:50:19;2.90;;;1.83;;
22646;SDS011;11490;42.726;23.268;2023-05-07T10:52:31;3.25;;;2.35;;
22646;SDS011;11490;42.726;23.268;2023-05-07T10:57:39;3.47;;;2.33;;
22646;SDS011;11490;42.726;23.268;2023-05-07T11:05:30;2.83;;;1.88;;
22646;SDS011;11490;42.726;23.268;2023-05-07T11:07:57;2.70;;;1.85;;
22646;SDS011;11490;42.726;23.268;2023-05-07T11:11:13;2.45;;;1.77;;
22646;SDS011;11490;42.726;23.268;2023-05-07T11:13:13;4.15;;;2.15;;
22646;SDS011;11490;42.726;23.268;2023-05-07T11:15:39;3.42;;;2.33;;
22646;SDS011;11490;42.726;23.268;2023-05-07T11:18:15;3.85;;;2.00;;
22646;SDS011;11490;42.726;23.268;2023-05-07T11:23:56;3.35;;;1.90;;
22646;SDS011;11490;42.726;23.268;2023-05-07T11:26:10;1.77;;;1.30;;
22646;SDS011;11490;42.726;23.268;2023-05-07T11:28:36;2.72;;;1.65;;
22646;SDS011;11490;42.726;23.268;2023-05-07T11:31:03;2.85;;;1.83;;
22646;SDS011;11490;42.726;23.268;2023-05-07T11:33:32;2.70;;;1.77;;
22646;SDS011;11490;42.726;23.268;2023-05-07T11:35:59;3.47;;;1.80;;
22646;SDS011;11490;42.726;23.268;2023-05-07T11:38:25;4.32;;;2.00;;
22646;SDS011;11490;42.726;23.268;2023-05-07T11:43:17;3.58;;;1.95;;
22646;SDS011;11490;42.726;23.268;2023-05-07T11:45:42;6.07;;;2.03;;
22646;SDS011;11490;42.726;23.268;2023-05-07T11:48:09;4.78;;;1.60;;
22646;SDS011;11490;42.726;23.268;2023-05-07T11:50:34;3.38;;;2.42;;
22646;SDS011;11490;42.726;23.268;2023-05-07T11:53:00;2.28;;;1.48;;
22646;SDS011;11490;42.726;23.268;2023-05-07T11:55:32;4.32;;;1.90;;
22646;SDS011;11490;42.726;23.268;2023-05-07T11:57:57;3.13;;;2.03;;
22646;SDS011;11490;42.726;23.268;2023-05-07T12:00:22;3.70;;;2.28;;
22646;SDS011;11490;42.726;23.268;2023-05-07T12:02:48;9.32;;;1.90;;
22646;SDS011;11490;42.726;23.268;2023-05-07T12:05:13;4.00;;;1.58;;
22646;SDS011;11490;42.726;23.268;2023-05-07T12:07:38;2.55;;;1.58;;
22646;SDS011;11490;42.726;23.268;2023-05-07T12:10:06;2.95;;;1.90;;
22646;SDS011;11490;42.726;23.268;2023-05-07T12:12:38;3.72;;;1.70;;
22646;SDS011;11490;42.726;23.268;2023-05-07T12:15:04;2.25;;;1.95;;
22646;SDS011;11490;42.726;23.268;2023-05-07T12:17:30;3.22;;;2.00;;
22646;SDS011;11490;42.726;23.268;2023-05-07T12:19:55;2.90;;;1.73;;
22646;SDS011;11490;42.726;23.268;2023-05-07T12:22:21;4.55;;;1.88;;
22646;SDS011;11490;42.726;23.268;2023-05-07T12:24:47;4.32;;;1.85;;
22646;SDS011;11490;42.726;23.268;2023-05-07T12:27:15;3.15;;;1.80;;
22646;SDS011;11490;42.726;23.268;2023-05-07T12:29:45;2.22;;;1.55;;
22646;SDS011;11490;42.726;23.268;2023-05-07T12:32:13;3.22;;;1.83;;
22646;SDS011;11490;42.726;23.268;2023-05-07T12:34:40;7.57;;;1.95;;
22646;SDS011;11490;42.726;23.268;2023-05-07T12:37:06;5.32;;;1.80;;
22646;SDS011;11490;42.726;23.268;2023-05-07T12:39:31;2.10;;;1.90;;
22646;SDS011;11490;42.726;23.268;2023-05-07T12:41:58;3.30;;;2.15;;
22646;SDS011;11490;42.726;23.268;2023-05-07T12:44:31;3.47;;;1.92;;
22646;SDS011;11490;42.726;23.268;2023-05-07T12:46:58;3.45;;;2.15;;
22646;SDS011;11490;42.726;23.268;2023-05-07T12:49:26;2.67;;;1.63;;
22646;SDS011;11490;42.726;23.268;2023-05-07T12:51:51;2.53;;;1.77;;
22646;SDS011;11490;42.726;23.268;2023-05-07T12:54:28;1.92;;;1.70;;
22646;SDS011;11490;42.726;23.268;2023-05-07T12:57:02;2.00;;;1.42;;
22646;SDS011;11490;42.726;23.268;2023-05-07T12:59:38;2.90;;;1.90;;
22646;SDS011;11490;42.726;23.268;2023-05-07T13:02:05;2.13;;;1.58;;
22646;SDS011;11490;42.726;23.268;2023-05-07T13:04:31;2.70;;;1.83;;
22646;SDS011;11490;42.726;23.268;2023-05-07T13:06:57;4.43;;;2.17;;
22646;SDS011;11490;42.726;23.268;2023-05-07T13:09:23;4.97;;;2.00;;
22646;SDS011;11490;42.726;23.268;2023-05-07T13:11:48;2.90;;;1.88;;
22646;SDS011;11490;42.726;23.268;2023-05-07T13:14:14;3.35;;;1.58;;
22646;SDS011;11490;42.726;23.268;2023-05-07T13:16:40;4.55;;;2.00;;
22646;SDS011;11490;42.726;23.268;2023-05-07T13:19:05;3.63;;;1.70;;
22646;SDS011;11490;42.726;23.268;2023-05-07T13:21:31;3.20;;;2.00;;
22646;SDS011;11490;42.726;23.268;2023-05-07T13:23:59;4.97;;;2.22;;
22646;SDS011;11490;42.726;23.268;2023-05-07T13:26:24;3.08;;;2.03;;
22646;SDS011;11490;42.726;23.268;2023-05-07T13:28:50;7.53;;;2.35;;
22646;SDS011;11490;42.726;23.268;2023-05-07T13:31:16;3.55;;;2.00;;
22646;SDS011;11490;42.726;23.268;2023-05-07T13:33:42;2.67;;;1.50;;
22646;SDS011;11490;42.726;23.268;2023-05-07T13:36:07;4.00;;;1.75;;
22646;SDS011;11490;42.726;23.268;2023-05-07T13:38:33;3.25;;;1.73;;
22646;SDS011;11490;42.726;23.268;2023-05-07T13:40:58;2.20;;;1.65;;
22646;SDS011;11490;42.726;23.268;2023-05-07T13:43:24;2.58;;;2.00;;
22646;SDS011;11490;42.726;23.268;2023-05-07T13:45:49;5.97;;;2.08;;
22646;SDS011;11490;42.726;23.268;2023-05-07T13:48:15;4.10;;;2.28;;
22646;SDS011;11490;42.726;23.268;2023-05-07T13:50:40;4.05;;;1.92;;
22646;SDS011;11490;42.726;23.268;2023-05-07T13:53:07;3.25;;;2.35;;
22646;SDS011;11490;42.726;23.268;2023-05-07T13:55:33;4.78;;;2.08;;
22646;SDS011;11490;42.726;23.268;2023-05-07T13:57:59;3.50;;;2.20;;
22646;SDS011;11490;42.726;23.268;2023-05-07T14:00:26;2.42;;;1.83;;
22646;SDS011;11490;42.726;23.268;2023-05-07T14:02:52;2.85;;;2.08;;
22646;SDS011;11490;42.726;23.268;2023-05-07T14:05:22;4.90;;;2.10;;
22646;SDS011;11490;42.726;23.268;2023-05-07T14:07:48;3.38;;;2.03;;
22646;SDS011;11490;42.726;23.268;2023-05-07T14:10:17;3.17;;;2.08;;
22646;SDS011;11490;42.726;23.268;2023-05-07T14:12:43;3.97;;;2.50;;
22646;SDS011;11490;42.726;23.268;2023-05-07T14:15:10;2.78;;;1.90;;
22646;SDS011;11490;42.726;23.268;2023-05-07T14:17:35;3.90;;;2.20;;
22646;SDS011;11490;42.726;23.268;2023-05-07T14:20:01;4.03;;;2.30;;
22646;SDS011;11490;42.726;23.268;2023-05-07T14:22:26;2.58;;;1.70;;
22646;SDS011;11490;42.726;23.268;2023-05-07T14:24:52;8.80;;;4.88;;
22646;SDS011;11490;42.726;23.268;2023-05-07T14:27:17;4.18;;;2.30;;
22646;SDS011;11490;42.726;23.268;2023-05-07T14:29:42;3.78;;;2.20;;
22646;SDS011;11490;42.726;23.268;2023-05-07T14:32:11;3.80;;;2.00;;
22646;SDS011;11490;42.726;23.268;2023-05-07T14:34:37;5.28;;;2.80;;
22646;SDS011;11490;42.726;23.268;2023-05-07T14:37:05;10.00;;;2.95;;
22646;SDS011;11490;42.726;23.268;2023-05-07T14:39:31;6.88;;;3.38;;
22646;SDS011;11490;42.726;23.268;2023-05-07T14:41:56;15.13;;;6.85;;